<<    Dezember 2013    >>
Datum    Temp.       Tempmin      Tempmax    Taup.       Taup.min      Taup.max    Feuchte    Feuchtemin    Feuchtemax    Druck    Druckmin    Druckmax    Regen    Wind    Benmax  
  01.12.2013  5,8    1,8    01:49    8,8    14:32  5,4    1,5    01:49    7,9    13:26  97,0    88    15:21    98    00:56  1030,8    1028    01:06    1033    23:35  1,2  0,6  6,8  
  02.12.2013  6,0    1,4    22:50    8,5    12:38  3,2    -0,1    21:14    6,9    06:57  83,9    59    13:26    98    00:00  1033,2    1032    14:50    1036    10:49  0,0  0,9  11,5  
  03.12.2013  1,8    -1,2    21:28    5,6    14:17  0,1    -1,9    20:31    1,8    00:42  89,0    74    14:48    97    23:59  1029,5    1027    14:35    1032    00:00  0,0  0,6  9,0  
  04.12.2013  3,9    -0,9    00:47    6,8    19:57  2,9    -1,3    00:47    6,5    19:57  93,3    76    14:31    98    23:59  1027,1    1025    13:33    1030    23:34  0,0  1,7  17,3  
  05.12.2013  3,8    0,8    04:58    7,8    18:57  1,9    -0,9    13:45    6,3    19:17  88,1    65    15:21    98    00:00  1021,1    1010    18:18    1031    01:03  0,0  4,7  31,3  
  06.12.2013  2,7    1,5    10:59    3,8    05:07  0,2    -2,8    05:51    2,3    13:48  83,8    63    05:51    98    13:38  1021,3    1016    00:00    1026    23:59  6,6  6,4  27,7  
  07.12.2013  4,5    1,9    00:56    7,0    19:56  2,9    -1,2    02:32    6,5    17:17  89,8    76    05:29    98    13:32  1026,8    1025    13:47    1029    10:02  1,0  2,7  16,9  
  08.12.2013  7,7    6,0    01:59    9,8    14:08  5,3    4,0    04:33    7,2    11:22  85,1    75    13:43    96    08:47  1026,4    1025    05:02    1028    22:47  0,0  3,3  16,2  
  09.12.2013  8,0    6,0    23:19    9,9    13:33  4,6    3,7    06:11    5,8    18:49  79,5    72    10:27    92    23:59  1029,7    1026    05:40    1034    21:34  0,0  2,9  14,0  
  10.12.2013  6,1    3,9    23:59    8,0    14:33  4,7    3,3    07:48    5,8    09:36  91,1    84    12:43    98    21:27  1034,9    1033    00:47    1036    10:33  0,0  1,3  10,1  
  11.12.2013  5,8    3,9    00:00    7,1    13:49  5,3    3,6    00:00    6,4    12:25  96,9    91    14:07    98    00:00  1034,2    1032    23:46    1036    00:00  0,0  3,9  15,5  
  12.12.2013  4,1    1,8    22:47    6,2    13:21  2,7    0,9    18:41    5,1    00:00  90,6    76    13:24    98    00:00  1029,8    1027    17:46    1032    00:00  0,0  4,4  16,6  
  13.12.2013  1,8    0,6    07:43    4,0    14:17  0,8    0,3    03:59    1,9    10:32  93,5    81    14:37    98    06:59  1025,8    1023    14:49    1029    01:49  0,0  3,6  15,8  
  14.12.2013  3,5    0,5    02:11    7,5    14:10  3,1    0,2    02:11    7,2    14:10  97,1    91    16:37    98    00:00  1027,5    1023    05:01    1032    18:31  2,7  2,5  14,0  
  15.12.2013  6,9    3,7    00:00    9,6    14:36  3,7    -0,3    23:37    7,3    11:36  81,2    65    21:44    98    00:00  1028,2    1027    02:15    1030    00:00  0,9  3,2  16,9  
  16.12.2013  6,3    2,9    07:25    9,5    13:32  -0,4    -1,4    17:45    0,6    10:07  63,3    49    15:48    78    07:52  1026,0    1024    15:12    1028    00:00  0,0  3,6  19,1  
  17.12.2013  6,6    4,0    08:26    10,9    13:25  0,9    -0,3    04:50    2,3    11:46  67,6    53    13:31    77    23:33  1025,1    1023    05:16    1027    13:00  0,0  2,6  10,1  
  18.12.2013  7,7    4,8    03:26    10,8    12:59  3,9    0,9    03:16    5,8    20:10  77,3    69    13:00    86    22:09  1019,1    1009    23:59    1024    00:16  0,0  3,0  17,3  
  19.12.2013  7,8    2,7    23:59    10,8    12:15  5,4    2,1    23:00    8,2    08:36  85,5    69    12:32    98    23:59  1007,9    1003    06:14    1015    22:45  3,0  2,7  13,7  
  20.12.2013  4,9    2,2    00:40    8,2    15:01  2,5    0,6    23:26    5,7    10:11  86,0    64    15:18    98    00:00  1023,8    1014    00:14    1031    21:01  0,0  2,2  14,8  
  21.12.2013  6,0    2,8    00:54    8,1    14:28  -1,4    -5,6    23:03    1,7    03:27  60,8    39    23:03    87    01:22  1026,4    1020    22:00    1031    00:00  0,9  5,3  20,5  
  22.12.2013  8,4    5,8    03:43    10,5    15:59  4,3    -3,7    00:07    6,8    22:50  76,2    45    01:13    94    22:37  1017,3    1015    14:58    1021    03:44  1,9  4,4  17,3  
  23.12.2013  8,6    4,5    07:48    11,3    23:39  4,2    2,3    07:48    5,7    00:34  74,8    58    22:18    89    08:26  1013,9    1003    22:28    1019    02:00  0,0  4,3  19,4  
  24.12.2013  12,4    10,5    03:54    14,0    15:39  3,4    0,3    06:10    6,9    23:23  54,5    48    06:10    69    23:20  995,4    989    23:32    1003    00:00  0,0  7,1  28,4  
  25.12.2013  9,0    3,8    22:10    12,4    00:43  4,7    2,1    22:10    8,0    04:36  75,4    66    12:44    93    23:59  991,2    986    04:13    995    16:15  3,0  2,2  13,7  
  26.12.2013  6,1    3,4    23:48    8,3    15:14  4,1    1,6    23:48    6,1    12:05  87,6    78    16:56    98    10:11  998,8    993    00:00    1006    21:27  0,0  0,8  6,8  
  27.12.2013  7,6    2,5    01:21    11,6    22:58  2,9    -0,3    10:10    7,1    23:49  73,2    56    10:59    92    01:59  1001,5    998    23:14    1007    03:42  0,0  5,8  21,2  
  28.12.2013  8,6    6,5    23:59    12,1    03:55  7,2    6,2    23:56    8,3    13:10  91,7    69    03:58    98    07:55  1001,2    996    04:50    1008    23:42  5,7  1,3  13,0  
  29.12.2013  4,9    1,2    23:42    6,8    13:31  4,0    0,6    23:42    6,2    00:00  93,9    82    15:55    98    00:00  1017,1    1008    00:00    1026    23:59  0,0  2,1  6,5  
  30.12.2013  4,2    0,9    01:47    6,5    13:06  0,7    -0,7    14:47    3,1    10:45  80,0    61    14:47    98    00:49  1024,5    1021    16:28    1028    02:13  0,0  5,3  19,4  
  31.12.2013  6,0    4,2    05:48    8,2    14:31  -0,6    -3,0    23:07    1,7    08:09  64,1    50    16:15    81    08:09  1016,9    1011    19:26    1023    00:11  0,9  4,9  19,4  
 
  Gesamt  6,0  -1,2            14,0            3,0  -5,6            8,3            82,3  39            98            1020,4  986            1036            27,6  3,2  31,3  
 
  Mittelwert  6,0  3,0            8,7            3,0  0,3            5,5            82,3  67,5            93,4            1020,4  1015,9            1024,7            0,9  3,2  16,1  
  Minimum  1,8  -1,2            3,8            -1,4  -5,6            0,6            54,5  39,0            69,0            991,2  986,0            995,0            0,0  0,6  6,5  
  Maximum  12,4  10,5            14,0            7,2  6,2            8,3            97,1  91,0            98,0            1034,9  1033,0            1036,0            6,6  7,1  31,3  

  Heie Tage    Tmax >=30C     0  
  Sommertage    Tmax >=25C     0  
  Warme Tage    Tmax >=20C     0  
  Kalte Tage    Tmax  <10C     22  
  Frosttage    Tmin  <0C     2  
  Eistage    Tmax  <0C     0  
  Regentage > 0 mm    11  
  Regentage > 2 mm    5  
  Regentage > 10 mm    0  
  Regentage > 20 mm    0